sensor_id;sensor_type;location;lat;lon;timestamp;pressure;altitude;pressure_sealevel;temperature;humidity
75745;BME280;74462;51.366;-0.222;2024-02-21T00:00:58;101832.24;;;10.32;75.78
75745;BME280;74462;51.366;-0.222;2024-02-21T00:02:02;101825.23;;;10.30;75.78
75745;BME280;74462;51.366;-0.222;2024-02-21T00:03:07;101827.44;;;10.29;75.84
75745;BME280;74462;51.366;-0.222;2024-02-21T00:04:11;101827.27;;;10.29;75.74
75745;BME280;74462;51.366;-0.222;2024-02-21T00:05:16;101823.27;;;10.30;75.65
75745;BME280;74462;51.366;-0.222;2024-02-21T00:06:20;101821.48;;;10.30;75.81
75745;BME280;74462;51.366;-0.222;2024-02-21T00:07:25;101824.48;;;10.34;75.66
75745;BME280;74462;51.366;-0.222;2024-02-21T00:08:29;101819.29;;;10.34;75.84
75745;BME280;74462;51.366;-0.222;2024-02-21T00:09:34;101815.31;;;10.32;75.78
75745;BME280;74462;51.366;-0.222;2024-02-21T00:10:38;101815.42;;;10.31;75.65
75745;BME280;74462;51.366;-0.222;2024-02-21T00:11:43;101814.80;;;10.32;75.68
75745;BME280;74462;51.366;-0.222;2024-02-21T00:12:47;101810.90;;;10.35;75.60
75745;BME280;74462;51.366;-0.222;2024-02-21T00:13:52;101808.26;;;10.35;75.73
75745;BME280;74462;51.366;-0.222;2024-02-21T00:14:56;101808.88;;;10.33;75.68
75745;BME280;74462;51.366;-0.222;2024-02-21T00:16:03;101809.34;;;10.34;75.63
75745;BME280;74462;51.366;-0.222;2024-02-21T00:17:07;101810.55;;;10.32;75.55
75745;BME280;74462;51.366;-0.222;2024-02-21T00:18:12;101814.88;;;10.37;75.55
75745;BME280;74462;51.366;-0.222;2024-02-21T00:19:17;101811.57;;;10.38;75.49
75745;BME280;74462;51.366;-0.222;2024-02-21T00:20:21;101814.89;;;10.39;75.65
75745;BME280;74462;51.366;-0.222;2024-02-21T00:21:26;101817.38;;;10.39;75.47
75745;BME280;74462;51.366;-0.222;2024-02-21T00:22:30;101814.89;;;10.39;75.51
75745;BME280;74462;51.366;-0.222;2024-02-21T00:23:36;101815.91;;;10.37;75.50
75745;BME280;74462;51.366;-0.222;2024-02-21T00:24:41;101813.50;;;10.39;75.55
75745;BME280;74462;51.366;-0.222;2024-02-21T00:25:46;101808.75;;;10.38;75.75
75745;BME280;74462;51.366;-0.222;2024-02-21T00:26:50;101803.42;;;10.38;75.59
75745;BME280;74462;51.366;-0.222;2024-02-21T00:27:55;101802.68;;;10.39;75.68
75745;BME280;74462;51.366;-0.222;2024-02-21T00:28:59;101797.31;;;10.36;75.68
75745;BME280;74462;51.366;-0.222;2024-02-21T00:30:05;101797.74;;;10.38;75.71
75745;BME280;74462;51.366;-0.222;2024-02-21T00:31:10;101800.44;;;10.38;75.78
75745;BME280;74462;51.366;-0.222;2024-02-21T00:32:14;101800.44;;;10.32;75.92
75745;BME280;74462;51.366;-0.222;2024-02-21T00:33:19;101800.71;;;10.25;75.97
75745;BME280;74462;51.366;-0.222;2024-02-21T00:34:23;101795.33;;;10.31;75.90
75745;BME280;74462;51.366;-0.222;2024-02-21T00:35:28;101787.55;;;10.31;75.98
75745;BME280;74462;51.366;-0.222;2024-02-21T00:36:32;101782.77;;;10.33;75.93
75745;BME280;74462;51.366;-0.222;2024-02-21T00:37:37;101780.09;;;10.31;75.94
75745;BME280;74462;51.366;-0.222;2024-02-21T00:38:41;101775.90;;;10.33;75.94
75745;BME280;74462;51.366;-0.222;2024-02-21T00:39:46;101772.54;;;10.30;76.07
75745;BME280;74462;51.366;-0.222;2024-02-21T00:40:50;101769.04;;;10.32;76.02
75745;BME280;74462;51.366;-0.222;2024-02-21T00:41:55;101765.33;;;10.34;75.80
75745;BME280;74462;51.366;-0.222;2024-02-21T00:42:59;101761.78;;;10.34;75.90
75745;BME280;74462;51.366;-0.222;2024-02-21T00:44:04;101764.52;;;10.36;75.90
75745;BME280;74462;51.366;-0.222;2024-02-21T00:45:10;101762.58;;;10.35;75.78
75745;BME280;74462;51.366;-0.222;2024-02-21T00:46:14;101759.80;;;10.34;75.95
75745;BME280;74462;51.366;-0.222;2024-02-21T00:47:19;101760.50;;;10.29;75.93
75745;BME280;74462;51.366;-0.222;2024-02-21T00:48:24;101758.07;;;10.28;76.17
75745;BME280;74462;51.366;-0.222;2024-02-21T00:49:28;101751.73;;;10.33;75.98
75745;BME280;74462;51.366;-0.222;2024-02-21T00:50:33;101754.27;;;10.35;75.96
75745;BME280;74462;51.366;-0.222;2024-02-21T00:51:37;101754.00;;;10.34;76.00
75745;BME280;74462;51.366;-0.222;2024-02-21T00:52:42;101753.61;;;10.34;75.95
75745;BME280;74462;51.366;-0.222;2024-02-21T00:53:47;101746.33;;;10.31;76.05
75745;BME280;74462;51.366;-0.222;2024-02-21T00:54:51;101749.00;;;10.31;76.11
75745;BME280;74462;51.366;-0.222;2024-02-21T00:55:56;101747.77;;;10.34;76.02
75745;BME280;74462;51.366;-0.222;2024-02-21T00:57:00;101746.46;;;10.35;76.03
75745;BME280;74462;51.366;-0.222;2024-02-21T00:58:05;101748.64;;;10.31;76.15
75745;BME280;74462;51.366;-0.222;2024-02-21T00:59:10;101747.46;;;10.25;76.25
75745;BME280;74462;51.366;-0.222;2024-02-21T01:00:17;101742.45;;;10.23;76.65
75745;BME280;74462;51.366;-0.222;2024-02-21T01:01:26;101740.71;;;10.31;76.29
75745;BME280;74462;51.366;-0.222;2024-02-21T01:02:30;101736.32;;;10.30;76.11
75745;BME280;74462;51.366;-0.222;2024-02-21T01:03:35;101733.59;;;10.25;76.40
75745;BME280;74462;51.366;-0.222;2024-02-21T01:04:39;101731.95;;;10.29;76.27
75745;BME280;74462;51.366;-0.222;2024-02-21T01:05:44;101731.27;;;10.28;76.43
75745;BME280;74462;51.366;-0.222;2024-02-21T01:06:48;101729.23;;;10.27;76.44
75745;BME280;74462;51.366;-0.222;2024-02-21T01:07:53;101728.52;;;10.30;76.33
75745;BME280;74462;51.366;-0.222;2024-02-21T01:08:57;101725.31;;;10.30;76.39
75745;BME280;74462;51.366;-0.222;2024-02-21T01:10:02;101723.36;;;10.24;76.62
75745;BME280;74462;51.366;-0.222;2024-02-21T01:11:06;101723.14;;;10.28;76.44
75745;BME280;74462;51.366;-0.222;2024-02-21T01:12:11;101720.40;;;10.29;76.34
75745;BME280;74462;51.366;-0.222;2024-02-21T01:13:15;101714.80;;;10.33;76.27
75745;BME280;74462;51.366;-0.222;2024-02-21T01:14:20;101717.14;;;10.35;76.28
75745;BME280;74462;51.366;-0.222;2024-02-21T01:15:25;101713.77;;;10.24;76.57
75745;BME280;74462;51.366;-0.222;2024-02-21T01:16:29;101713.16;;;10.23;76.73
75745;BME280;74462;51.366;-0.222;2024-02-21T01:17:34;101712.61;;;10.26;76.67
75745;BME280;74462;51.366;-0.222;2024-02-21T01:18:39;101710.30;;;10.26;76.63
75745;BME280;74462;51.366;-0.222;2024-02-21T01:19:45;101709.66;;;10.25;76.61
75745;BME280;74462;51.366;-0.222;2024-02-21T01:20:50;101707.48;;;10.26;76.60
75745;BME280;74462;51.366;-0.222;2024-02-21T01:21:54;101703.52;;;10.29;76.65
75745;BME280;74462;51.366;-0.222;2024-02-21T01:22:59;101696.55;;;10.30;76.55
75745;BME280;74462;51.366;-0.222;2024-02-21T01:24:04;101691.92;;;10.33;76.34
75745;BME280;74462;51.366;-0.222;2024-02-21T01:25:09;101692.20;;;10.31;76.42
75745;BME280;74462;51.366;-0.222;2024-02-21T01:26:14;101686.98;;;10.32;76.56
75745;BME280;74462;51.366;-0.222;2024-02-21T01:27:18;101689.21;;;10.28;76.57
75745;BME280;74462;51.366;-0.222;2024-02-21T01:28:24;101685.30;;;10.28;76.78
75745;BME280;74462;51.366;-0.222;2024-02-21T01:29:28;101678.95;;;10.30;76.57
75745;BME280;74462;51.366;-0.222;2024-02-21T01:30:32;101680.33;;;10.33;76.63
75745;BME280;74462;51.366;-0.222;2024-02-21T01:31:37;101680.25;;;10.29;76.59
75745;BME280;74462;51.366;-0.222;2024-02-21T01:32:41;101680.13;;;10.29;76.87
75745;BME280;74462;51.366;-0.222;2024-02-21T01:33:46;101673.45;;;10.25;76.78
75745;BME280;74462;51.366;-0.222;2024-02-21T01:34:51;101669.70;;;10.25;76.79
75745;BME280;74462;51.366;-0.222;2024-02-21T01:35:55;101670.03;;;10.31;76.72
75745;BME280;74462;51.366;-0.222;2024-02-21T01:37:00;101668.72;;;10.32;76.66
75745;BME280;74462;51.366;-0.222;2024-02-21T01:38:07;101667.07;;;10.30;76.67
75745;BME280;74462;51.366;-0.222;2024-02-21T01:39:11;101665.77;;;10.28;76.73
75745;BME280;74462;51.366;-0.222;2024-02-21T01:40:16;101665.45;;;10.30;76.71
75745;BME280;74462;51.366;-0.222;2024-02-21T01:41:20;101660.73;;;10.21;76.92
75745;BME280;74462;51.366;-0.222;2024-02-21T01:42:25;101657.02;;;10.29;76.86
75745;BME280;74462;51.366;-0.222;2024-02-21T01:43:29;101655.08;;;10.26;76.81
75745;BME280;74462;51.366;-0.222;2024-02-21T01:44:34;101653.58;;;10.27;76.83
75745;BME280;74462;51.366;-0.222;2024-02-21T01:45:39;101656.17;;;10.28;76.69
75745;BME280;74462;51.366;-0.222;2024-02-21T01:46:44;101654.91;;;10.28;76.77
75745;BME280;74462;51.366;-0.222;2024-02-21T01:47:48;101655.52;;;10.30;76.57
75745;BME280;74462;51.366;-0.222;2024-02-21T01:48:53;101649.04;;;10.29;76.85
75745;BME280;74462;51.366;-0.222;2024-02-21T01:49:58;101653.60;;;10.27;76.80
75745;BME280;74462;51.366;-0.222;2024-02-21T01:51:04;101641.23;;;10.29;76.85
75745;BME280;74462;51.366;-0.222;2024-02-21T01:52:10;101631.58;;;10.32;76.71
75745;BME280;74462;51.366;-0.222;2024-02-21T01:53:18;101627.11;;;10.33;76.78
75745;BME280;74462;51.366;-0.222;2024-02-21T01:54:24;101624.93;;;10.31;76.75
75745;BME280;74462;51.366;-0.222;2024-02-21T01:55:31;101620.13;;;10.34;76.67
75745;BME280;74462;51.366;-0.222;2024-02-21T01:56:36;101619.55;;;10.29;77.01
75745;BME280;74462;51.366;-0.222;2024-02-21T01:57:41;101614.85;;;10.28;76.98
75745;BME280;74462;51.366;-0.222;2024-02-21T01:58:49;101610.88;;;10.23;77.14
75745;BME280;74462;51.366;-0.222;2024-02-21T01:59:53;101607.78;;;10.25;77.25
75745;BME280;74462;51.366;-0.222;2024-02-21T02:00:58;101606.48;;;10.22;77.28
75745;BME280;74462;51.366;-0.222;2024-02-21T02:02:03;101605.63;;;10.25;77.14
75745;BME280;74462;51.366;-0.222;2024-02-21T02:03:08;101602.45;;;10.25;77.25
75745;BME280;74462;51.366;-0.222;2024-02-21T02:04:13;101603.58;;;10.14;77.53
75745;BME280;74462;51.366;-0.222;2024-02-21T02:05:18;101594.91;;;10.17;77.53
75745;BME280;74462;51.366;-0.222;2024-02-21T02:06:24;101596.59;;;10.19;77.66
75745;BME280;74462;51.366;-0.222;2024-02-21T02:07:28;101593.02;;;10.19;77.65
75745;BME280;74462;51.366;-0.222;2024-02-21T02:08:33;101590.16;;;10.13;77.77
75745;BME280;74462;51.366;-0.222;2024-02-21T02:09:37;101582.38;;;10.19;77.61
75745;BME280;74462;51.366;-0.222;2024-02-21T02:10:42;101581.23;;;10.17;77.64
75745;BME280;74462;51.366;-0.222;2024-02-21T02:11:47;101578.85;;;10.15;77.85
75745;BME280;74462;51.366;-0.222;2024-02-21T02:12:52;101574.91;;;10.13;77.89
75745;BME280;74462;51.366;-0.222;2024-02-21T02:13:56;101570.66;;;10.19;77.80
75745;BME280;74462;51.366;-0.222;2024-02-21T02:15:02;101573.61;;;10.20;77.86
75745;BME280;74462;51.366;-0.222;2024-02-21T02:16:08;101573.45;;;10.20;77.73
75745;BME280;74462;51.366;-0.222;2024-02-21T02:17:12;101575.61;;;10.25;77.55
75745;BME280;74462;51.366;-0.222;2024-02-21T02:18:19;101571.41;;;10.24;77.36
75745;BME280;74462;51.366;-0.222;2024-02-21T02:19:23;101569.89;;;10.20;77.54
75745;BME280;74462;51.366;-0.222;2024-02-21T02:20:28;101564.92;;;10.26;77.53
75745;BME280;74462;51.366;-0.222;2024-02-21T02:21:35;101558.50;;;10.20;77.49
75745;BME280;74462;51.366;-0.222;2024-02-21T02:22:44;101554.31;;;10.20;77.57
75745;BME280;74462;51.366;-0.222;2024-02-21T02:23:50;101550.61;;;10.19;77.71
75745;BME280;74462;51.366;-0.222;2024-02-21T02:24:55;101542.20;;;10.20;77.56
75745;BME280;74462;51.366;-0.222;2024-02-21T02:26:01;101540.81;;;10.25;77.32
75745;BME280;74462;51.366;-0.222;2024-02-21T02:27:05;101544.36;;;10.26;77.45
75745;BME280;74462;51.366;-0.222;2024-02-21T02:28:10;101538.60;;;10.18;77.56
75745;BME280;74462;51.366;-0.222;2024-02-21T02:29:14;101535.20;;;10.22;77.50
75745;BME280;74462;51.366;-0.222;2024-02-21T02:30:20;101529.27;;;10.23;77.33
75745;BME280;74462;51.366;-0.222;2024-02-21T02:31:24;101527.98;;;10.23;77.46
75745;BME280;74462;51.366;-0.222;2024-02-21T02:32:29;101523.11;;;10.18;77.47
75745;BME280;74462;51.366;-0.222;2024-02-21T02:33:33;101525.47;;;10.21;77.40
75745;BME280;74462;51.366;-0.222;2024-02-21T02:34:37;101520.49;;;10.21;77.41
75745;BME280;74462;51.366;-0.222;2024-02-21T02:35:42;101517.73;;;10.20;77.40
75745;BME280;74462;51.366;-0.222;2024-02-21T02:36:46;101518.14;;;10.25;77.30
75745;BME280;74462;51.366;-0.222;2024-02-21T02:37:52;101518.78;;;10.23;77.33
75745;BME280;74462;51.366;-0.222;2024-02-21T02:38:56;101518.25;;;10.26;77.16
75745;BME280;74462;51.366;-0.222;2024-02-21T02:40:01;101523.27;;;10.28;77.07
75745;BME280;74462;51.366;-0.222;2024-02-21T02:41:06;101526.89;;;10.26;77.06
75745;BME280;74462;51.366;-0.222;2024-02-21T02:42:10;101528.16;;;10.26;77.05
75745;BME280;74462;51.366;-0.222;2024-02-21T02:43:14;101528.71;;;10.20;77.10
75745;BME280;74462;51.366;-0.222;2024-02-21T02:44:19;101522.34;;;10.20;77.19
75745;BME280;74462;51.366;-0.222;2024-02-21T02:45:24;101520.74;;;10.25;77.09
75745;BME280;74462;51.366;-0.222;2024-02-21T02:46:29;101517.43;;;10.27;76.83
75745;BME280;74462;51.366;-0.222;2024-02-21T02:47:34;101516.98;;;10.26;76.76
75745;BME280;74462;51.366;-0.222;2024-02-21T02:48:38;101518.71;;;10.29;76.70
75745;BME280;74462;51.366;-0.222;2024-02-21T02:49:43;101516.52;;;10.25;76.80
75745;BME280;74462;51.366;-0.222;2024-02-21T02:50:48;101515.83;;;10.25;76.77
75745;BME280;74462;51.366;-0.222;2024-02-21T02:51:53;101510.19;;;10.27;76.67
75745;BME280;74462;51.366;-0.222;2024-02-21T02:52:57;101511.12;;;10.26;76.64
75745;BME280;74462;51.366;-0.222;2024-02-21T02:54:01;101510.09;;;10.25;76.70
75745;BME280;74462;51.366;-0.222;2024-02-21T02:55:07;101509.48;;;10.29;76.59
75745;BME280;74462;51.366;-0.222;2024-02-21T02:56:16;101507.16;;;10.29;76.61
75745;BME280;74462;51.366;-0.222;2024-02-21T02:57:21;101505.42;;;10.24;76.65
75745;BME280;74462;51.366;-0.222;2024-02-21T02:58:25;101503.61;;;10.27;76.47
75745;BME280;74462;51.366;-0.222;2024-02-21T02:59:30;101502.52;;;10.19;76.74
75745;BME280;74462;51.366;-0.222;2024-02-21T03:00:35;101505.83;;;10.20;76.78
75745;BME280;74462;51.366;-0.222;2024-02-21T03:01:41;101499.52;;;10.27;76.73
75745;BME280;74462;51.366;-0.222;2024-02-21T03:02:46;101497.64;;;10.28;76.50
75745;BME280;74462;51.366;-0.222;2024-02-21T03:03:52;101494.05;;;10.29;76.63
75745;BME280;74462;51.366;-0.222;2024-02-21T03:04:58;101493.52;;;10.24;76.47
75745;BME280;74462;51.366;-0.222;2024-02-21T03:06:02;101487.85;;;10.23;76.42
75745;BME280;74462;51.366;-0.222;2024-02-21T03:07:08;101487.51;;;10.23;76.57
75745;BME280;74462;51.366;-0.222;2024-02-21T03:08:12;101477.71;;;10.24;76.51
75745;BME280;74462;51.366;-0.222;2024-02-21T03:09:16;101478.73;;;10.24;76.39
75745;BME280;74462;51.366;-0.222;2024-02-21T03:10:21;101478.00;;;10.28;76.42
75745;BME280;74462;51.366;-0.222;2024-02-21T03:11:25;101468.99;;;10.27;76.44
75745;BME280;74462;51.366;-0.222;2024-02-21T03:12:32;101487.10;;;10.27;76.39
75745;BME280;74462;51.366;-0.222;2024-02-21T03:13:36;101494.96;;;10.29;76.27
75745;BME280;74462;51.366;-0.222;2024-02-21T03:14:41;101506.58;;;10.30;76.28
75745;BME280;74462;51.366;-0.222;2024-02-21T03:15:45;101505.95;;;10.26;76.43
75745;BME280;74462;51.366;-0.222;2024-02-21T03:16:52;101503.87;;;10.20;76.51
75745;BME280;74462;51.366;-0.222;2024-02-21T03:17:57;101497.30;;;10.20;76.65
75745;BME280;74462;51.366;-0.222;2024-02-21T03:19:01;101496.70;;;10.18;76.69
75745;BME280;74462;51.366;-0.222;2024-02-21T03:20:08;101490.26;;;10.22;76.69
75745;BME280;74462;51.366;-0.222;2024-02-21T03:21:13;101485.39;;;10.21;76.75
75745;BME280;74462;51.366;-0.222;2024-02-21T03:22:17;101482.85;;;10.24;76.73
75745;BME280;74462;51.366;-0.222;2024-02-21T03:23:22;101481.83;;;10.23;76.80
75745;BME280;74462;51.366;-0.222;2024-02-21T03:24:26;101472.06;;;10.15;77.01
75745;BME280;74462;51.366;-0.222;2024-02-21T03:25:33;101476.89;;;10.12;77.24
75745;BME280;74462;51.366;-0.222;2024-02-21T03:26:37;101474.48;;;10.16;77.28
75745;BME280;74462;51.366;-0.222;2024-02-21T03:27:43;101474.48;;;10.08;77.68
75745;BME280;74462;51.366;-0.222;2024-02-21T03:28:47;101478.30;;;10.06;77.73
75745;BME280;74462;51.366;-0.222;2024-02-21T03:29:52;101472.18;;;10.08;77.64
75745;BME280;74462;51.366;-0.222;2024-02-21T03:30:56;101467.84;;;10.06;77.66
75745;BME280;74462;51.366;-0.222;2024-02-21T03:32:01;101463.36;;;10.07;77.78
75745;BME280;74462;51.366;-0.222;2024-02-21T03:33:05;101463.05;;;10.11;77.34
75745;BME280;74462;51.366;-0.222;2024-02-21T03:34:11;101462.02;;;10.06;77.74
75745;BME280;74462;51.366;-0.222;2024-02-21T03:35:16;101457.23;;;10.06;77.60
75745;BME280;74462;51.366;-0.222;2024-02-21T03:36:20;101456.05;;;10.12;77.58
75745;BME280;74462;51.366;-0.222;2024-02-21T03:37:25;101456.35;;;10.11;77.43
75745;BME280;74462;51.366;-0.222;2024-02-21T03:38:30;101450.77;;;10.06;77.48
75745;BME280;74462;51.366;-0.222;2024-02-21T03:39:34;101447.69;;;10.05;77.50
75745;BME280;74462;51.366;-0.222;2024-02-21T03:40:40;101451.73;;;10.06;77.44
75745;BME280;74462;51.366;-0.222;2024-02-21T03:41:44;101444.06;;;10.01;77.56
75745;BME280;74462;51.366;-0.222;2024-02-21T03:42:49;101444.30;;;10.03;77.32
75745;BME280;74462;51.366;-0.222;2024-02-21T03:43:53;101442.20;;;10.07;77.50
75745;BME280;74462;51.366;-0.222;2024-02-21T03:44:57;101439.81;;;10.06;77.57
75745;BME280;74462;51.366;-0.222;2024-02-21T03:46:02;101438.77;;;10.06;77.62
75745;BME280;74462;51.366;-0.222;2024-02-21T03:47:07;101440.73;;;10.10;77.28
75745;BME280;74462;51.366;-0.222;2024-02-21T03:48:13;101441.67;;;10.07;77.48
75745;BME280;74462;51.366;-0.222;2024-02-21T03:49:18;101444.27;;;10.06;77.60
75745;BME280;74462;51.366;-0.222;2024-02-21T03:50:22;101437.42;;;9.97;77.79
75745;BME280;74462;51.366;-0.222;2024-02-21T03:51:29;101430.87;;;9.97;77.83
75745;BME280;74462;51.366;-0.222;2024-02-21T03:52:33;101436.16;;;10.02;77.62
75745;BME280;74462;51.366;-0.222;2024-02-21T03:53:38;101434.92;;;10.02;77.50
75745;BME280;74462;51.366;-0.222;2024-02-21T03:54:42;101434.32;;;10.06;77.46
75745;BME280;74462;51.366;-0.222;2024-02-21T03:55:47;101425.80;;;9.98;77.35
75745;BME280;74462;51.366;-0.222;2024-02-21T03:56:52;101417.01;;;9.97;77.46
75745;BME280;74462;51.366;-0.222;2024-02-21T03:57:56;101422.62;;;10.01;77.39
75745;BME280;74462;51.366;-0.222;2024-02-21T03:59:01;101425.87;;;9.97;77.40
75745;BME280;74462;51.366;-0.222;2024-02-21T04:00:07;101425.29;;;9.95;77.52
75745;BME280;74462;51.366;-0.222;2024-02-21T04:01:16;101422.31;;;9.95;77.39
75745;BME280;74462;51.366;-0.222;2024-02-21T04:02:21;101417.98;;;9.98;77.43
75745;BME280;74462;51.366;-0.222;2024-02-21T04:03:25;101413.35;;;9.96;77.27
75745;BME280;74462;51.366;-0.222;2024-02-21T04:04:30;101410.64;;;9.97;77.34
75745;BME280;74462;51.366;-0.222;2024-02-21T04:05:34;101406.22;;;9.99;77.27
75745;BME280;74462;51.366;-0.222;2024-02-21T04:06:47;101402.96;;;9.98;77.20
75745;BME280;74462;51.366;-0.222;2024-02-21T04:07:53;101400.77;;;9.96;77.32
75745;BME280;74462;51.366;-0.222;2024-02-21T04:08:58;101399.27;;;9.97;77.43
75745;BME280;74462;51.366;-0.222;2024-02-21T04:10:02;101395.43;;;9.96;77.37
75745;BME280;74462;51.366;-0.222;2024-02-21T04:11:07;101396.65;;;9.96;77.36
75745;BME280;74462;51.366;-0.222;2024-02-21T04:12:11;101391.25;;;9.97;77.37
75745;BME280;74462;51.366;-0.222;2024-02-21T04:13:16;101389.99;;;9.98;77.20
75745;BME280;74462;51.366;-0.222;2024-02-21T04:14:20;101385.39;;;9.95;77.16
75745;BME280;74462;51.366;-0.222;2024-02-21T04:15:25;101387.04;;;9.99;77.20
75745;BME280;74462;51.366;-0.222;2024-02-21T04:16:29;101385.13;;;10.04;76.96
75745;BME280;74462;51.366;-0.222;2024-02-21T04:17:34;101372.60;;;10.00;76.95
75745;BME280;74462;51.366;-0.222;2024-02-21T04:18:39;101375.72;;;10.04;77.07
75745;BME280;74462;51.366;-0.222;2024-02-21T04:19:44;101379.09;;;9.99;76.93
75745;BME280;74462;51.366;-0.222;2024-02-21T04:20:48;101380.06;;;9.97;76.86
75745;BME280;74462;51.366;-0.222;2024-02-21T04:21:53;101374.99;;;10.02;76.87
75745;BME280;74462;51.366;-0.222;2024-02-21T04:22:57;101368.11;;;9.99;76.88
75745;BME280;74462;51.366;-0.222;2024-02-21T04:24:02;101362.56;;;9.94;76.92
75745;BME280;74462;51.366;-0.222;2024-02-21T04:25:09;101364.58;;;9.96;76.89
75745;BME280;74462;51.366;-0.222;2024-02-21T04:26:14;101367.70;;;9.94;77.03
75745;BME280;74462;51.366;-0.222;2024-02-21T04:27:18;101369.41;;;9.95;76.82
75745;BME280;74462;51.366;-0.222;2024-02-21T04:28:23;101372.80;;;9.95;76.73
75745;BME280;74462;51.366;-0.222;2024-02-21T04:29:27;101370.78;;;9.85;77.11
75745;BME280;74462;51.366;-0.222;2024-02-21T04:30:32;101360.89;;;9.87;77.13
75745;BME280;74462;51.366;-0.222;2024-02-21T04:31:37;101355.63;;;9.89;77.21
75745;BME280;74462;51.366;-0.222;2024-02-21T04:32:41;101355.10;;;9.86;77.27
75745;BME280;74462;51.366;-0.222;2024-02-21T04:33:46;101349.02;;;9.92;77.17
75745;BME280;74462;51.366;-0.222;2024-02-21T04:34:52;101349.05;;;9.89;77.25
75745;BME280;74462;51.366;-0.222;2024-02-21T04:35:56;101345.16;;;9.89;77.33
75745;BME280;74462;51.366;-0.222;2024-02-21T04:37:01;101343.86;;;9.90;77.35
75745;BME280;74462;51.366;-0.222;2024-02-21T04:38:06;101341.13;;;9.85;77.27
75745;BME280;74462;51.366;-0.222;2024-02-21T04:39:10;101337.66;;;9.87;77.37
75745;BME280;74462;51.366;-0.222;2024-02-21T04:40:15;101336.06;;;9.87;77.30
75745;BME280;74462;51.366;-0.222;2024-02-21T04:41:20;101330.46;;;9.83;77.40
75745;BME280;74462;51.366;-0.222;2024-02-21T04:42:25;101333.87;;;9.80;77.47
75745;BME280;74462;51.366;-0.222;2024-02-21T04:43:30;101334.58;;;9.75;77.54
75745;BME280;74462;51.366;-0.222;2024-02-21T04:44:34;101331.71;;;9.75;77.75
75745;BME280;74462;51.366;-0.222;2024-02-21T04:45:39;101332.12;;;9.79;77.70
75745;BME280;74462;51.366;-0.222;2024-02-21T04:46:44;101330.88;;;9.77;77.53
75745;BME280;74462;51.366;-0.222;2024-02-21T04:47:49;101319.12;;;9.72;77.56
75745;BME280;74462;51.366;-0.222;2024-02-21T04:48:53;101317.61;;;9.71;77.45
75745;BME280;74462;51.366;-0.222;2024-02-21T04:49:58;101314.61;;;9.74;77.51
75745;BME280;74462;51.366;-0.222;2024-02-21T04:51:03;101310.04;;;9.78;77.44
75745;BME280;74462;51.366;-0.222;2024-02-21T04:52:08;101306.41;;;9.69;77.51
75745;BME280;74462;51.366;-0.222;2024-02-21T04:53:12;101303.41;;;9.71;77.59
75745;BME280;74462;51.366;-0.222;2024-02-21T04:54:17;101303.15;;;9.80;77.46
75745;BME280;74462;51.366;-0.222;2024-02-21T04:55:21;101303.06;;;9.81;77.40
75745;BME280;74462;51.366;-0.222;2024-02-21T04:56:26;101299.74;;;9.78;77.48
75745;BME280;74462;51.366;-0.222;2024-02-21T04:57:30;101298.48;;;9.76;77.55
75745;BME280;74462;51.366;-0.222;2024-02-21T04:58:38;101294.08;;;9.76;77.48
75745;BME280;74462;51.366;-0.222;2024-02-21T04:59:43;101295.99;;;9.68;77.84
75745;BME280;74462;51.366;-0.222;2024-02-21T05:00:48;101288.89;;;9.68;77.66
75745;BME280;74462;51.366;-0.222;2024-02-21T05:01:52;101287.06;;;9.72;77.81
75745;BME280;74462;51.366;-0.222;2024-02-21T05:02:57;101282.45;;;9.72;77.74
75745;BME280;74462;51.366;-0.222;2024-02-21T05:04:01;101281.58;;;9.72;77.65
75745;BME280;74462;51.366;-0.222;2024-02-21T05:05:07;101280.73;;;9.71;77.56
75745;BME280;74462;51.366;-0.222;2024-02-21T05:06:11;101277.71;;;9.71;77.57
75745;BME280;74462;51.366;-0.222;2024-02-21T05:07:16;101275.86;;;9.75;77.58
75745;BME280;74462;51.366;-0.222;2024-02-21T05:08:22;101276.03;;;9.70;77.64
75745;BME280;74462;51.366;-0.222;2024-02-21T05:09:26;101272.83;;;9.73;77.51
75745;BME280;74462;51.366;-0.222;2024-02-21T05:10:31;101268.80;;;9.74;77.49
75745;BME280;74462;51.366;-0.222;2024-02-21T05:11:35;101268.20;;;9.73;77.52
75745;BME280;74462;51.366;-0.222;2024-02-21T05:12:40;101273.09;;;9.68;77.55
75745;BME280;74462;51.366;-0.222;2024-02-21T05:13:45;101272.67;;;9.64;77.59
75745;BME280;74462;51.366;-0.222;2024-02-21T05:14:49;101268.95;;;9.64;77.48
75745;BME280;74462;51.366;-0.222;2024-02-21T05:15:54;101269.00;;;9.61;77.60
75745;BME280;74462;51.366;-0.222;2024-02-21T05:16:58;101266.83;;;9.56;77.79
75745;BME280;74462;51.366;-0.222;2024-02-21T05:18:03;101261.63;;;9.60;77.61
75745;BME280;74462;51.366;-0.222;2024-02-21T05:19:08;101261.46;;;9.65;77.42
75745;BME280;74462;51.366;-0.222;2024-02-21T05:20:13;101256.86;;;9.62;77.55
75745;BME280;74462;51.366;-0.222;2024-02-21T05:21:17;101260.55;;;9.65;77.38
75745;BME280;74462;51.366;-0.222;2024-02-21T05:22:22;101260.59;;;9.67;77.50
75745;BME280;74462;51.366;-0.222;2024-02-21T05:23:26;101258.67;;;9.67;77.37
75745;BME280;74462;51.366;-0.222;2024-02-21T05:24:31;101253.69;;;9.64;77.41
75745;BME280;74462;51.366;-0.222;2024-02-21T05:25:35;101254.23;;;9.70;77.44
75745;BME280;74462;51.366;-0.222;2024-02-21T05:26:40;101250.60;;;9.68;77.46
75745;BME280;74462;51.366;-0.222;2024-02-21T05:27:44;101253.86;;;9.62;77.59
75745;BME280;74462;51.366;-0.222;2024-02-21T05:28:49;101249.61;;;9.64;77.55
75745;BME280;74462;51.366;-0.222;2024-02-21T05:29:54;101243.05;;;9.67;77.53
75745;BME280;74462;51.366;-0.222;2024-02-21T05:30:59;101242.79;;;9.68;77.26
75745;BME280;74462;51.366;-0.222;2024-02-21T05:32:04;101244.38;;;9.71;77.28
75745;BME280;74462;51.366;-0.222;2024-02-21T05:33:09;101240.09;;;9.69;77.06
75745;BME280;74462;51.366;-0.222;2024-02-21T05:34:14;101235.35;;;9.65;77.42
75745;BME280;74462;51.366;-0.222;2024-02-21T05:35:18;101235.00;;;9.63;77.44
75745;BME280;74462;51.366;-0.222;2024-02-21T05:36:24;101233.94;;;9.65;77.50